Time;durP1;ratioP1;P1;durP2;ratioP2;P2;SDS_P1;SDS_P2;PMS_P1;PMS_P2;Temp;Humidity;BMP_temperature;BMP_pressure;BME280_temperature;BME280_humidity;BME280_pressure;Samples;Min_cycle;Max_cycle;Signal;HPM_P1;HPM_P2
2022/03/04 00:00:46;;;;;;;18.43;8.67;;;;;;;;;;5029433;28;20190;-66
2022/03/04 00:03:12;;;;;;;21.97;9.20;;;;;;;;;;5027547;28;20702;-66
2022/03/04 00:05:38;;;;;;;22.00;8.27;;;;;;;;;;5033752;28;20235;-66
2022/03/04 00:08:04;;;;;;;19.80;9.10;;;;;;;;;;5036692;28;20584;-67
2022/03/04 00:10:31;;;;;;;20.17;8.30;;;;;;;;;;5028301;28;20178;-66
2022/03/04 00:12:56;;;;;;;22.00;8.60;;;;;;;;;;5025742;28;20186;-66
2022/03/04 00:15:22;;;;;;;19.53;9.10;;;;;;;;;;5028331;28;20212;-66
2022/03/04 00:17:47;;;;;;;20.23;8.70;;;;;;;;;;5024172;28;20194;-66
2022/03/04 00:20:13;;;;;;;19.70;9.20;;;;;;;;;;5027778;28;20181;-66
2022/03/04 00:22:38;;;;;;;16.03;7.77;;;;;;;;;;5036437;28;20198;-66
2022/03/04 00:25:05;;;;;;;19.17;8.37;;;;;;;;;;5025461;28;20178;-66
2022/03/04 00:27:31;;;;;;;21.83;8.80;;;;;;;;;;5030494;28;20490;-66
2022/03/04 00:29:56;;;;;;;20.47;9.13;;;;;;;;;;5023697;28;20265;-66
2022/03/04 00:32:21;;;;;;;26.30;9.43;;;;;;;;;;5022259;28;20205;-66
2022/03/04 00:34:47;;;;;;;15.97;7.87;;;;;;;;;;5021383;28;20206;-66
2022/03/04 00:37:12;;;;;;;19.10;8.60;;;;;;;;;;5036519;28;20268;-66
2022/03/04 00:39:37;;;;;;;21.80;8.87;;;;;;;;;;5025106;28;20178;-66
2022/03/04 00:42:03;;;;;;;20.03;8.03;;;;;;;;;;5028362;28;20616;-66
2022/03/04 00:44:29;;;;;;;21.47;9.20;;;;;;;;;;5024838;28;20187;-66
2022/03/04 00:46:54;;;;;;;20.63;8.70;;;;;;;;;;5028662;28;20185;-66
2022/03/04 00:49:20;;;;;;;20.30;8.47;;;;;;;;;;5025374;28;20189;-66
2022/03/04 00:51:45;;;;;;;19.40;8.13;;;;;;;;;;5027721;28;20186;-66
2022/03/04 00:54:11;;;;;;;22.63;9.17;;;;;;;;;;5023650;28;20237;-67
2022/03/04 00:56:36;;;;;;;19.87;8.37;;;;;;;;;;5028211;28;20200;-67
2022/03/04 00:59:02;;;;;;;19.57;8.40;;;;;;;;;;5022579;28;20182;-67
2022/03/04 01:01:28;;;;;;;20.47;7.87;;;;;;;;;;5031716;28;20555;-67
2022/03/04 01:03:53;;;;;;;21.97;8.33;;;;;;;;;;5019727;28;20229;-67
2022/03/04 01:06:18;;;;;;;18.47;9.13;;;;;;;;;;5026792;28;20243;-67
2022/03/04 01:08:44;;;;;;;20.33;8.93;;;;;;;;;;5024845;28;20186;-67
2022/03/04 01:11:09;;;;;;;20.63;9.43;;;;;;;;;;5025141;28;20209;-67
2022/03/04 01:13:35;;;;;;;19.33;8.07;;;;;;;;;;5024556;28;20681;-67
2022/03/04 01:16:03;;;;;;;25.00;9.37;;;;;;;;;;5028874;28;20221;-67
2022/03/04 01:18:29;;;;;;;26.17;9.93;;;;;;;;;;5021335;28;20197;-67
2022/03/04 01:20:54;;;;;;;22.17;9.10;;;;;;;;;;5026895;28;20697;-66
2022/03/04 01:23:19;;;;;;;24.10;9.10;;;;;;;;;;5024724;28;20244;-66
2022/03/04 01:25:45;;;;;;;20.33;8.63;;;;;;;;;;5026706;28;20642;-66
2022/03/04 01:28:10;;;;;;;23.93;8.93;;;;;;;;;;5024696;28;20182;-66
2022/03/04 01:30:35;;;;;;;19.33;9.00;;;;;;;;;;5026694;28;20599;-66
2022/03/04 01:33:01;;;;;;;23.47;9.67;;;;;;;;;;5024690;28;20198;-66
2022/03/04 01:35:26;;;;;;;19.80;8.23;;;;;;;;;;5030327;28;20621;-66
2022/03/04 01:37:52;;;;;;;21.97;8.60;;;;;;;;;;5020223;28;20227;-65
2022/03/04 01:40:17;;;;;;;25.77;9.07;;;;;;;;;;5018227;28;20179;-65
2022/03/04 01:42:43;;;;;;;23.23;8.77;;;;;;;;;;5017972;28;20670;-66
2022/03/04 01:45:09;;;;;;;27.23;9.93;;;;;;;;;;5022614;28;20171;-66
2022/03/04 01:47:38;;;;;;;24.30;9.57;;;;;;;;;;5021823;28;20449;-66
2022/03/04 01:50:04;;;;;;;27.87;9.00;;;;;;;;;;5021643;28;20262;-66
2022/03/04 01:52:29;;;;;;;25.77;10.23;;;;;;;;;;5024544;28;20642;-66
2022/03/04 01:54:54;;;;;;;21.87;8.77;;;;;;;;;;5027360;28;20271;-66
2022/03/04 01:57:20;;;;;;;23.87;9.43;;;;;;;;;;5031860;28;20233;-66
2022/03/04 01:59:46;;;;;;;26.47;10.20;;;;;;;;;;5021451;28;20290;-66
2022/03/04 02:02:11;;;;;;;24.70;9.37;;;;;;;;;;5014577;28;20226;-66
2022/03/04 02:04:38;;;;;;;23.07;8.87;;;;;;;;;;5021439;28;20205;-66
2022/03/04 02:07:03;;;;;;;26.60;9.53;;;;;;;;;;5022225;28;20194;-66
2022/03/04 02:09:29;;;;;;;25.10;9.47;;;;;;;;;;5025845;28;20182;-66
2022/03/04 02:11:55;;;;;;;28.37;10.63;;;;;;;;;;5015864;28;20471;-66
2022/03/04 02:14:20;;;;;;;29.77;9.77;;;;;;;;;;5020715;28;20214;-66
2022/03/04 02:16:48;;;;;;;26.50;10.87;;;;;;;;;;5025387;28;20273;-66
2022/03/04 02:19:15;;;;;;;27.40;10.17;;;;;;;;;;5022534;28;20178;-66
2022/03/04 02:21:51;;;;;;;25.33;9.53;;;;;;;;;;5014043;28;20681;-66
2022/03/04 02:24:18;;;;;;;27.13;9.63;;;;;;;;;;5023757;28;20208;-66
2022/03/04 02:26:44;;;;;;;26.00;10.37;;;;;;;;;;5020661;28;20547;-66
2022/03/04 02:29:09;;;;;;;30.10;10.47;;;;;;;;;;5022332;28;20304;-66
2022/03/04 02:31:35;;;;;;;27.13;10.30;;;;;;;;;;5020048;28;20248;-66
2022/03/04 02:34:00;;;;;;;26.17;9.43;;;;;;;;;;5020226;28;20182;-66
2022/03/04 02:36:26;;;;;;;26.17;9.50;;;;;;;;;;5024256;28;20658;-66
2022/03/04 02:38:51;;;;;;;31.90;11.13;;;;;;;;;;5021580;28;20772;-66
2022/03/04 02:41:16;;;;;;;28.77;10.87;;;;;;;;;;5016911;28;20181;-66
2022/03/04 02:43:42;;;;;;;31.23;11.10;;;;;;;;;;5023499;28;20190;-66
2022/03/04 02:46:07;;;;;;;29.93;11.07;;;;;;;;;;5029699;28;20177;-66
2022/03/04 02:48:33;;;;;;;35.67;11.47;;;;;;;;;;5023746;28;20644;-66
2022/03/04 02:50:58;;;;;;;29.40;11.20;;;;;;;;;;5024661;28;20599;-66
2022/03/04 02:53:23;;;;;;;33.37;10.87;;;;;;;;;;5019659;28;20194;-67
2022/03/04 02:55:48;;;;;;;30.03;11.00;;;;;;;;;;5020293;28;20206;-66
2022/03/04 02:58:14;;;;;;;30.40;10.70;;;;;;;;;;5023322;28;20186;-66
2022/03/04 03:00:39;;;;;;;32.43;11.53;;;;;;;;;;5040827;28;20178;-66
2022/03/04 03:03:05;;;;;;;33.57;12.27;;;;;;;;;;5022098;28;20594;-66
2022/03/04 03:05:30;;;;;;;30.50;10.50;;;;;;;;;;5024687;28;20273;-66
2022/03/04 03:07:55;;;;;;;39.77;11.93;;;;;;;;;;5018582;28;20355;-66
2022/03/04 03:10:21;;;;;;;34.03;12.53;;;;;;;;;;5025990;28;20275;-66
2022/03/04 03:12:46;;;;;;;34.03;12.50;;;;;;;;;;5023901;28;20190;-67
2022/03/04 03:15:12;;;;;;;33.13;12.27;;;;;;;;;;5021171;28;20221;-66
2022/03/04 03:17:37;;;;;;;34.83;12.57;;;;;;;;;;5017464;28;20233;-67
2022/03/04 03:20:04;;;;;;;37.33;11.70;;;;;;;;;;5024801;28;20183;-66
2022/03/04 03:22:30;;;;;;;33.57;12.53;;;;;;;;;;5021245;28;20186;-66
2022/03/04 03:24:55;;;;;;;34.73;13.87;;;;;;;;;;5020888;28;20208;-66
2022/03/04 03:27:20;;;;;;;31.90;12.03;;;;;;;;;;5019908;28;20182;-67
2022/03/04 03:29:46;;;;;;;38.90;12.93;;;;;;;;;;5023273;28;20206;-67
2022/03/04 03:32:12;;;;;;;39.87;14.30;;;;;;;;;;5019994;28;20232;-67
2022/03/04 03:34:39;;;;;;;38.40;13.07;;;;;;;;;;5023618;28;20202;-67
2022/03/04 03:37:05;;;;;;;37.07;13.17;;;;;;;;;;5021839;28;20193;-67
2022/03/04 03:39:30;;;;;;;31.90;13.13;;;;;;;;;;5029424;28;20645;-66
2022/03/04 03:41:56;;;;;;;41.63;14.53;;;;;;;;;;5021925;28;20212;-67
2022/03/04 03:44:21;;;;;;;42.40;13.83;;;;;;;;;;5018041;28;20265;-66
2022/03/04 03:46:47;;;;;;;42.43;14.70;;;;;;;;;;5016128;28;20216;-67
2022/03/04 03:49:12;;;;;;;43.93;14.30;;;;;;;;;;5026608;28;20189;-67
2022/03/04 03:51:38;;;;;;;46.50;16.00;;;;;;;;;;5026498;28;20194;-67
2022/03/04 03:54:03;;;;;;;35.87;13.80;;;;;;;;;;5024837;28;20208;-67
2022/03/04 03:56:29;;;;;;;42.10;14.67;;;;;;;;;;5027496;28;20252;-67
2022/03/04 03:58:54;;;;;;;31.47;12.60;;;;;;;;;;5025685;28;20412;-66
2022/03/04 04:01:19;;;;;;;42.43;15.73;;;;;;;;;;5016861;28;20653;-66
2022/03/04 04:03:45;;;;;;;40.70;15.10;;;;;;;;;;5025671;28;20229;-66
2022/03/04 04:06:10;;;;;;;45.03;14.83;;;;;;;;;;5027416;28;20190;-66
2022/03/04 04:08:36;;;;;;;36.37;15.77;;;;;;;;;;5024404;28;20594;-66
2022/03/04 04:11:01;;;;;;;41.27;14.50;;;;;;;;;;5024906;28;20178;-66
2022/03/04 04:13:26;;;;;;;39.80;14.10;;;;;;;;;;5022701;28;20301;-66
2022/03/04 04:15:52;;;;;;;40.03;14.80;;;;;;;;;;5030651;28;20292;-66
2022/03/04 04:18:17;;;;;;;41.63;15.47;;;;;;;;;;5024854;28;20208;-66
2022/03/04 04:20:42;;;;;;;39.60;15.03;;;;;;;;;;5028117;28;20625;-66
2022/03/04 04:23:08;;;;;;;42.17;15.10;;;;;;;;;;5025526;28;20194;-67
2022/03/04 04:25:33;;;;;;;42.50;14.90;;;;;;;;;;5025611;28;20175;-66
2022/03/04 04:27:59;;;;;;;43.93;15.20;;;;;;;;;;5023969;28;20186;-66
2022/03/04 04:30:24;;;;;;;41.77;14.90;;;;;;;;;;5020796;28;20609;-66
2022/03/04 04:32:50;;;;;;;44.70;15.47;;;;;;;;;;5022968;28;20538;-66
2022/03/04 04:35:15;;;;;;;45.57;16.13;;;;;;;;;;5025619;28;20198;-66
2022/03/04 04:37:40;;;;;;;42.97;15.27;;;;;;;;;;5024201;28;20241;-66
2022/03/04 04:40:06;;;;;;;40.40;14.73;;;;;;;;;;5027328;28;20531;-67
2022/03/04 04:42:32;;;;;;;45.20;16.87;;;;;;;;;;5023924;28;20769;-67
2022/03/04 04:44:58;;;;;;;44.60;16.37;;;;;;;;;;5026553;28;20189;-67
2022/03/04 04:47:23;;;;;;;44.20;15.87;;;;;;;;;;5024615;28;20252;-66
2022/03/04 04:49:48;;;;;;;47.03;15.97;;;;;;;;;;5031029;28;20273;-66
2022/03/04 04:52:14;;;;;;;48.43;16.57;;;;;;;;;;5024650;28;20182;-66
2022/03/04 04:54:40;;;;;;;45.00;16.43;;;;;;;;;;5030520;28;20690;-65
2022/03/04 04:57:06;;;;;;;44.67;16.60;;;;;;;;;;5018996;28;20193;-66
2022/03/04 04:59:33;;;;;;;47.87;16.57;;;;;;;;;;5027916;28;20186;-66
2022/03/04 05:01:58;;;;;;;51.83;15.97;;;;;;;;;;5024176;28;20515;-66
2022/03/04 05:04:24;;;;;;;45.43;16.70;;;;;;;;;;5025794;28;20175;-66
2022/03/04 05:06:49;;;;;;;45.13;15.47;;;;;;;;;;5024276;28;20197;-65
2022/03/04 05:09:15;;;;;;;48.17;17.03;;;;;;;;;;5026891;28;20189;-66
2022/03/04 05:11:40;;;;;;;47.27;16.57;;;;;;;;;;5027020;28;20198;-66
2022/03/04 05:14:06;;;;;;;43.80;16.43;;;;;;;;;;5024474;28;20230;-66
2022/03/04 05:16:31;;;;;;;44.03;16.53;;;;;;;;;;5022980;28;20259;-66
2022/03/04 05:18:56;;;;;;;49.53;16.57;;;;;;;;;;5032846;28;20189;-64
2022/03/04 05:21:22;;;;;;;48.47;15.90;;;;;;;;;;5024398;28;20281;-65
2022/03/04 05:23:59;;;;;;;54.07;17.27;;;;;;;;;;5023972;28;20205;-66
2022/03/04 05:26:33;;;;;;;40.87;15.10;;;;;;;;;;5019652;28;20185;-66
2022/03/04 05:29:01;;;;;;;45.30;16.60;;;;;;;;;;5025640;28;20315;-66
2022/03/04 05:31:27;;;;;;;45.80;15.27;;;;;;;;;;5024473;28;20251;-67
2022/03/04 05:33:53;;;;;;;47.80;16.40;;;;;;;;;;5023727;28;20189;-67
2022/03/04 05:36:19;;;;;;;39.30;15.73;;;;;;;;;;5026552;28;20194;-67
2022/03/04 05:38:45;;;;;;;48.07;17.03;;;;;;;;;;5030661;28;20186;-69
2022/03/04 05:41:12;;;;;;;50.60;16.73;;;;;;;;;;5031184;28;20211;-66
2022/03/04 05:43:38;;;;;;;47.93;15.63;;;;;;;;;;5025306;28;20693;-66
2022/03/04 05:46:04;;;;;;;48.30;16.70;;;;;;;;;;5032184;28;20218;-66
2022/03/04 05:48:29;;;;;;;51.10;16.27;;;;;;;;;;5027743;28;20401;-66
2022/03/04 05:50:54;;;;;;;52.87;17.23;;;;;;;;;;5028866;28;20265;-66
2022/03/04 05:53:20;;;;;;;42.83;16.50;;;;;;;;;;5025714;28;20581;-66
2022/03/04 05:55:45;;;;;;;50.87;16.60;;;;;;;;;;5020462;28;20256;-66
2022/03/04 05:58:10;;;;;;;46.43;17.40;;;;;;;;;;5022700;28;20526;-66
2022/03/04 06:00:36;;;;;;;54.57;17.27;;;;;;;;;;5018462;28;20186;-66
2022/03/04 06:03:02;;;;;;;45.83;15.77;;;;;;;;;;5017552;28;20276;-66
2022/03/04 06:05:27;;;;;;;52.27;16.63;;;;;;;;;;5023412;28;20256;-66
2022/03/04 06:07:52;;;;;;;47.53;16.97;;;;;;;;;;5023238;28;20182;-66
2022/03/04 06:10:18;;;;;;;46.20;16.63;;;;;;;;;;5020001;28;20447;-66
2022/03/04 06:12:43;;;;;;;52.97;15.83;;;;;;;;;;5023616;28;20217;-66
2022/03/04 06:15:09;;;;;;;50.87;16.67;;;;;;;;;;5028768;28;20622;-66
2022/03/04 06:17:34;;;;;;;52.73;18.07;;;;;;;;;;5021687;28;20178;-66
2022/03/04 06:19:59;;;;;;;47.63;15.87;;;;;;;;;;5027170;28;20407;-66
2022/03/04 06:22:25;;;;;;;51.83;16.20;;;;;;;;;;5021662;28;20525;-66
2022/03/04 06:24:50;;;;;;;53.70;16.87;;;;;;;;;;5028407;28;20229;-66
2022/03/04 06:27:15;;;;;;;48.03;17.00;;;;;;;;;;5018936;28;20194;-66
2022/03/04 06:29:41;;;;;;;51.70;16.73;;;;;;;;;;5020396;28;20182;-66
2022/03/04 06:32:07;;;;;;;51.03;16.17;;;;;;;;;;5026028;28;20202;-66
2022/03/04 06:34:32;;;;;;;47.70;17.53;;;;;;;;;;5024205;28;20214;-66
2022/03/04 06:36:58;;;;;;;52.50;16.87;;;;;;;;;;5033490;28;20185;-66
2022/03/04 06:39:23;;;;;;;44.00;15.87;;;;;;;;;;5028099;28;20225;-66
2022/03/04 06:41:49;;;;;;;64.63;17.83;;;;;;;;;;5025392;28;20217;-66
2022/03/04 06:44:14;;;;;;;48.23;16.23;;;;;;;;;;5010312;28;20202;-67
2022/03/04 06:46:40;;;;;;;57.40;17.97;;;;;;;;;;5014003;28;20194;-67
2022/03/04 06:49:10;;;;;;;52.20;17.40;;;;;;;;;;5019062;28;20193;-67
2022/03/04 06:51:36;;;;;;;53.17;16.83;;;;;;;;;;5021909;28;20580;-68
2022/03/04 06:54:01;;;;;;;52.67;19.50;;;;;;;;;;5019631;28;20559;-67
2022/03/04 06:56:27;;;;;;;58.13;18.20;;;;;;;;;;5023273;28;20185;-67
2022/03/04 06:58:52;;;;;;;56.93;18.17;;;;;;;;;;5024947;28;20510;-67
2022/03/04 07:01:17;;;;;;;52.00;17.00;;;;;;;;;;5027976;28;20193;-66
2022/03/04 07:03:43;;;;;;;55.93;19.30;;;;;;;;;;5023167;28;20364;-66
2022/03/04 07:06:08;;;;;;;52.87;18.37;;;;;;;;;;5031117;28;20217;-67
2022/03/04 07:08:36;;;;;;;49.20;17.83;;;;;;;;;;5026155;28;20193;-67
2022/03/04 07:11:02;;;;;;;59.87;17.50;;;;;;;;;;5032420;28;20482;-67
2022/03/04 07:13:28;;;;;;;56.50;17.33;;;;;;;;;;5027878;28;20197;-68
2022/03/04 07:15:53;;;;;;;49.93;16.07;;;;;;;;;;5033474;28;20585;-67
2022/03/04 07:18:19;;;;;;;53.10;17.87;;;;;;;;;;5024290;28;20201;-67
2022/03/04 07:20:45;;;;;;;54.47;17.90;;;;;;;;;;5019268;28;20194;-67
2022/03/04 07:23:10;;;;;;;51.77;17.60;;;;;;;;;;5022438;28;20186;-68
2022/03/04 07:25:36;;;;;;;51.90;18.67;;;;;;;;;;5023444;28;20185;-67
2022/03/04 07:28:02;;;;;;;50.37;17.43;;;;;;;;;;5023536;28;20192;-67
2022/03/04 07:30:27;;;;;;;48.93;15.93;;;;;;;;;;5024818;28;20260;-67
2022/03/04 07:32:53;;;;;;;53.93;17.87;;;;;;;;;;5017926;28;20182;-67
2022/03/04 07:35:18;;;;;;;55.33;17.03;;;;;;;;;;5021656;28;20214;-65
2022/03/04 07:37:44;;;;;;;58.17;19.00;;;;;;;;;;5023297;28;20273;-66
2022/03/04 07:40:11;;;;;;;52.50;17.60;;;;;;;;;;5024205;28;20289;-67
2022/03/04 07:42:37;;;;;;;53.63;18.77;;;;;;;;;;5028458;28;20205;-66
2022/03/04 07:45:04;;;;;;;50.23;19.07;;;;;;;;;;5024188;28;20190;-66
2022/03/04 07:47:29;;;;;;;57.20;19.17;;;;;;;;;;5026154;28;20189;-66
2022/03/04 07:49:57;;;;;;;59.53;20.40;;;;;;;;;;5020470;28;20607;-67
2022/03/04 07:52:28;;;;;;;57.60;20.40;;;;;;;;;;5028146;28;20332;-67
2022/03/04 07:54:53;;;;;;;53.53;16.93;;;;;;;;;;5029366;28;20218;-67
2022/03/04 07:57:19;;;;;;;58.73;20.53;;;;;;;;;;5025249;28;20197;-67
2022/03/04 07:59:44;;;;;;;58.43;20.13;;;;;;;;;;5028391;28;20706;-67
2022/03/04 08:02:09;;;;;;;57.27;19.10;;;;;;;;;;5029631;28;20228;-67
2022/03/04 08:04:35;;;;;;;62.37;20.10;;;;;;;;;;5026535;28;20226;-67
2022/03/04 08:07:00;;;;;;;61.63;19.83;;;;;;;;;;5026777;28;20213;-67
2022/03/04 08:09:25;;;;;;;56.97;19.50;;;;;;;;;;5025338;28;20312;-67
2022/03/04 08:11:51;;;;;;;53.67;19.73;;;;;;;;;;5029254;28;20225;-67
2022/03/04 08:14:16;;;;;;;49.50;18.97;;;;;;;;;;5024345;28;20253;-67
2022/03/04 08:16:42;;;;;;;51.40;19.20;;;;;;;;;;5025760;28;20210;-67
2022/03/04 08:19:07;;;;;;;58.17;19.23;;;;;;;;;;5017795;28;20186;-67
2022/03/04 08:21:33;;;;;;;51.43;19.97;;;;;;;;;;5025506;28;20182;-68
2022/03/04 08:23:58;;;;;;;54.47;19.40;;;;;;;;;;5027517;28;20210;-67
2022/03/04 08:26:23;;;;;;;54.00;19.87;;;;;;;;;;5025594;28;20224;-67
2022/03/04 08:28:49;;;;;;;54.60;20.50;;;;;;;;;;5022338;28;20270;-67
2022/03/04 08:31:15;;;;;;;47.97;19.10;;;;;;;;;;5025247;28;20547;-67
2022/03/04 08:33:42;;;;;;;51.43;20.33;;;;;;;;;;5033095;28;21762;-67
2022/03/04 08:36:08;;;;;;;51.43;19.33;;;;;;;;;;5030513;28;20246;-68
2022/03/04 08:38:33;;;;;;;51.60;20.00;;;;;;;;;;5029835;28;20206;-67
2022/03/04 08:40:59;;;;;;;53.03;19.87;;;;;;;;;;5033951;28;20201;-67
2022/03/04 08:43:24;;;;;;;50.20;19.50;;;;;;;;;;5035758;28;20197;-67
2022/03/04 08:45:50;;;;;;;56.47;20.63;;;;;;;;;;5032767;28;20506;-67
2022/03/04 08:48:15;;;;;;;45.43;18.20;;;;;;;;;;5028829;28;20189;-67
2022/03/04 08:50:41;;;;;;;52.10;18.23;;;;;;;;;;5021272;28;20178;-67
2022/03/04 08:53:06;;;;;;;50.70;20.57;;;;;;;;;;5024275;28;20244;-67
2022/03/04 08:55:31;;;;;;;53.50;20.03;;;;;;;;;;5024562;28;20191;-66
2022/03/04 08:57:58;;;;;;;52.73;19.47;;;;;;;;;;5023145;28;20187;-66
2022/03/04 09:00:24;;;;;;;46.23;18.77;;;;;;;;;;5025848;28;20179;-66
2022/03/04 09:02:50;;;;;;;48.70;18.70;;;;;;;;;;5021330;28;20566;-67
2022/03/04 09:05:15;;;;;;;46.60;19.03;;;;;;;;;;5024465;28;20305;-68
2022/03/04 09:07:41;;;;;;;51.33;20.57;;;;;;;;;;5025018;28;20235;-68
2022/03/04 09:10:07;;;;;;;46.30;19.30;;;;;;;;;;5034340;28;20215;-68
2022/03/04 09:12:33;;;;;;;51.50;20.27;;;;;;;;;;5024002;28;20689;-67
2022/03/04 09:14:58;;;;;;;51.33;19.83;;;;;;;;;;5035559;28;20201;-67
2022/03/04 09:17:24;;;;;;;54.30;20.00;;;;;;;;;;5025580;28;20190;-67
2022/03/04 09:19:49;;;;;;;50.10;19.20;;;;;;;;;;5022976;28;20200;-67
2022/03/04 09:22:15;;;;;;;48.57;19.50;;;;;;;;;;5022343;28;20185;-68
2022/03/04 09:24:40;;;;;;;47.13;18.90;;;;;;;;;;5022152;28;20392;-67
2022/03/04 09:27:06;;;;;;;45.00;19.10;;;;;;;;;;5025731;28;20178;-67
2022/03/04 09:29:32;;;;;;;51.40;19.97;;;;;;;;;;5018868;28;20225;-67
2022/03/04 09:31:58;;;;;;;49.13;19.00;;;;;;;;;;5012272;28;20760;-67
2022/03/04 09:34:23;;;;;;;50.23;19.60;;;;;;;;;;5017989;28;20190;-67
2022/03/04 09:36:48;;;;;;;47.60;19.63;;;;;;;;;;5027445;28;20467;-67
2022/03/04 09:39:14;;;;;;;38.07;17.17;;;;;;;;;;5031815;28;20188;-66
2022/03/04 09:41:40;;;;;;;48.30;18.27;;;;;;;;;;5035727;28;20289;-66
2022/03/04 09:44:06;;;;;;;48.83;19.37;;;;;;;;;;5028132;28;20194;-66
2022/03/04 09:46:33;;;;;;;47.13;18.87;;;;;;;;;;5036374;28;20177;-66
2022/03/04 09:48:59;;;;;;;45.27;18.77;;;;;;;;;;5028638;28;20193;-67
2022/03/04 09:51:24;;;;;;;43.63;17.23;;;;;;;;;;5042004;28;20177;-66
2022/03/04 09:53:52;;;;;;;44.97;18.13;;;;;;;;;;5027431;28;20198;-66
2022/03/04 09:56:19;;;;;;;41.07;18.07;;;;;;;;;;5035350;28;20216;-67
2022/03/04 09:58:44;;;;;;;48.30;18.20;;;;;;;;;;5029896;28;20645;-67
2022/03/04 10:01:11;;;;;;;44.83;18.63;;;;;;;;;;5037834;28;20193;-66
2022/03/04 10:03:39;;;;;;;40.37;18.13;;;;;;;;;;5029307;28;20259;-66
2022/03/04 10:06:05;;;;;;;46.10;18.57;;;;;;;;;;5038795;28;20228;-67
2022/03/04 10:08:40;;;;;;;41.20;17.57;;;;;;;;;;5033604;28;20177;-66
2022/03/04 10:11:06;;;;;;;41.03;18.00;;;;;;;;;;5032942;28;20498;-67
2022/03/04 10:13:42;;;;;;;42.93;18.90;;;;;;;;;;5031687;28;20212;-66
2022/03/04 10:16:08;;;;;;;42.13;18.77;;;;;;;;;;5035489;28;20217;-67
2022/03/04 10:18:34;;;;;;;41.37;17.20;;;;;;;;;;5029566;28;20239;-67
2022/03/04 10:20:59;;;;;;;43.50;18.97;;;;;;;;;;5033658;28;20193;-67
2022/03/04 10:23:26;;;;;;;40.47;18.03;;;;;;;;;;5029404;28;20185;-67
2022/03/04 10:25:56;;;;;;;38.10;17.43;;;;;;;;;;5034515;28;20178;-67
2022/03/04 10:28:23;;;;;;;35.07;15.83;;;;;;;;;;5035594;28;20170;-67
2022/03/04 10:30:50;;;;;;;37.03;17.73;;;;;;;;;;5033551;28;20382;-67
2022/03/04 10:33:21;;;;;;;39.53;17.50;;;;;;;;;;5035529;28;20220;-67
2022/03/04 10:36:03;;;;;;;39.70;17.57;;;;;;;;;;5029909;28;20216;-66
2022/03/04 10:38:29;;;;;;;39.93;17.53;;;;;;;;;;5038482;28;20182;-67
2022/03/04 10:40:54;;;;;;;41.93;16.87;;;;;;;;;;5027447;28;20193;-67
2022/03/04 10:43:25;;;;;;;34.50;16.50;;;;;;;;;;5037255;28;20264;-68
2022/03/04 10:46:04;;;;;;;35.80;17.20;;;;;;;;;;5028428;28;20182;-67
2022/03/04 10:48:31;;;;;;;37.73;16.43;;;;;;;;;;5033598;28;20215;-67
2022/03/04 10:51:03;;;;;;;35.53;15.53;;;;;;;;;;5024590;28;20337;-68
2022/03/04 10:53:30;;;;;;;37.87;15.47;;;;;;;;;;5037827;28;20179;-67
2022/03/04 10:55:59;;;;;;;35.87;17.00;;;;;;;;;;5029152;28;20676;-68
2022/03/04 10:58:33;;;;;;;38.67;17.03;;;;;;;;;;5041262;28;20269;-68
2022/03/04 11:01:19;;;;;;;36.43;16.57;;;;;;;;;;5035016;28;20209;-68
2022/03/04 11:03:44;;;;;;;32.30;15.60;;;;;;;;;;5039782;28;20303;-68
2022/03/04 11:06:15;;;;;;;35.67;16.57;;;;;;;;;;5036437;28;20303;-68
2022/03/04 11:08:44;;;;;;;38.50;16.00;;;;;;;;;;5030060;28;20316;-68
2022/03/04 11:11:11;;;;;;;34.63;15.90;;;;;;;;;;5017492;28;20180;-68
2022/03/04 11:13:37;;;;;;;33.77;16.40;;;;;;;;;;5024326;28;20221;-67
2022/03/04 11:16:04;;;;;;;31.90;15.53;;;;;;;;;;5032120;28;20197;-68
2022/03/04 11:18:33;;;;;;;32.70;15.20;;;;;;;;;;5025727;28;20198;-67
2022/03/04 11:20:59;;;;;;;30.80;14.20;;;;;;;;;;5026075;28;20191;-67
2022/03/04 11:23:27;;;;;;;34.80;14.57;;;;;;;;;;5022752;28;20193;-68
2022/03/04 11:25:56;;;;;;;37.67;16.07;;;;;;;;;;5021033;28;20178;-67
2022/03/04 11:28:26;;;;;;;34.27;15.87;;;;;;;;;;5023719;28;20193;-68
2022/03/04 11:30:56;;;;;;;32.73;15.93;;;;;;;;;;5026296;28;20212;-67
2022/03/04 11:33:21;;;;;;;29.73;14.63;;;;;;;;;;5028732;28;20396;-67
2022/03/04 11:36:08;;;;;;;32.23;15.43;;;;;;;;;;5036399;28;20292;-67
2022/03/04 11:38:46;;;;;;;31.73;15.23;;;;;;;;;;5031516;28;20665;-67
2022/03/04 11:41:17;;;;;;;33.33;15.10;;;;;;;;;;5037220;28;20716;-68
2022/03/04 11:43:50;;;;;;;33.13;15.33;;;;;;;;;;5034899;28;20229;-68
2022/03/04 11:46:19;;;;;;;35.60;16.40;;;;;;;;;;5030118;28;20190;-68
2022/03/04 11:48:45;;;;;;;32.47;15.27;;;;;;;;;;5040330;28;20496;-68
2022/03/04 11:51:16;;;;;;;33.97;15.77;;;;;;;;;;5025809;28;20330;-68
2022/03/04 11:53:41;;;;;;;35.90;16.23;;;;;;;;;;5024450;28;20186;-68
2022/03/04 11:56:15;;;;;;;39.17;16.40;;;;;;;;;;5024225;28;20221;-68
2022/03/04 11:58:59;;;;;;;35.47;16.10;;;;;;;;;;5026718;28;20673;-68
2022/03/04 12:01:29;;;;;;;35.63;17.20;;;;;;;;;;5030546;28;20174;-67
2022/03/04 12:04:24;;;;;;;37.93;17.23;;;;;;;;;;5024014;28;20276;-67
2022/03/04 12:07:06;;;;;;;37.50;15.90;;;;;;;;;;5039675;28;20225;-67
2022/03/04 12:09:32;;;;;;;36.30;16.30;;;;;;;;;;5029825;28;20193;-68
2022/03/04 12:12:21;;;;;;;35.93;17.00;;;;;;;;;;5043935;28;20628;-67
2022/03/04 12:14:48;;;;;;;34.10;15.63;;;;;;;;;;5030227;28;20545;-67
2022/03/04 12:17:15;;;;;;;36.47;16.40;;;;;;;;;;5038570;28;20201;-67
2022/03/04 12:19:41;;;;;;;35.50;15.80;;;;;;;;;;5033632;28;20177;-67
2022/03/04 12:22:07;;;;;;;33.70;15.97;;;;;;;;;;5037274;28;20662;-67
2022/03/04 12:24:34;;;;;;;34.20;15.83;;;;;;;;;;5029970;28;20268;-68
2022/03/04 12:27:00;;;;;;;34.90;16.60;;;;;;;;;;5035761;28;20320;-68
2022/03/04 12:29:43;;;;;;;32.33;14.60;;;;;;;;;;5024666;28;20296;-68
2022/03/04 12:32:09;;;;;;;36.37;15.67;;;;;;;;;;5032601;28;20210;-68
2022/03/04 12:34:37;;;;;;;33.10;15.67;;;;;;;;;;5025954;28;20197;-68
2022/03/04 12:37:08;;;;;;;35.67;15.10;;;;;;;;;;5033518;28;20241;-68
2022/03/04 12:39:37;;;;;;;34.00;16.10;;;;;;;;;;5032598;28;20637;-68
2022/03/04 12:42:06;;;;;;;37.00;16.87;;;;;;;;;;5030384;28;20194;-68
2022/03/04 12:44:31;;;;;;;40.73;16.53;;;;;;;;;;5031640;28;20260;-68
2022/03/04 12:46:57;;;;;;;35.47;15.33;;;;;;;;;;5023164;28;20273;-68
2022/03/04 12:49:29;;;;;;;38.83;17.40;;;;;;;;;;5030311;28;20227;-68
2022/03/04 12:51:56;;;;;;;39.20;15.93;;;;;;;;;;5025552;28;20194;-68
2022/03/04 12:54:25;;;;;;;37.23;16.73;;;;;;;;;;5029789;28;20553;-68
2022/03/04 12:56:57;;;;;;;35.73;16.10;;;;;;;;;;5023367;28;20185;-68
2022/03/04 12:59:23;;;;;;;34.23;15.73;;;;;;;;;;5026191;28;20190;-67
2022/03/04 13:01:50;;;;;;;35.33;15.27;;;;;;;;;;5026956;28;20216;-67
2022/03/04 13:04:15;;;;;;;35.97;15.60;;;;;;;;;;5024196;28;20725;-68
2022/03/04 13:06:41;;;;;;;33.43;14.47;;;;;;;;;;5028235;28;20265;-68
2022/03/04 13:09:10;;;;;;;34.13;15.10;;;;;;;;;;5028756;28;20217;-68
2022/03/04 13:11:45;;;;;;;35.67;15.20;;;;;;;;;;5026208;28;20216;-68
2022/03/04 13:14:13;;;;;;;37.60;15.87;;;;;;;;;;5027650;28;20174;-67
2022/03/04 13:16:48;;;;;;;34.57;16.30;;;;;;;;;;5026974;28;20660;-69
2022/03/04 13:19:19;;;;;;;37.17;14.60;;;;;;;;;;5022832;28;20206;-68
2022/03/04 13:21:46;;;;;;;34.50;15.13;;;;;;;;;;5040568;28;20185;-68
2022/03/04 13:24:25;;;;;;;33.77;14.57;;;;;;;;;;5024596;28;20258;-68
2022/03/04 13:27:06;;;;;;;32.67;14.98;;;;;;;;;;5034331;28;20185;-67
2022/03/04 13:29:38;;;;;;;33.05;15.43;;;;;;;;;;5028467;28;20209;-67
2022/03/04 13:32:13;;;;;;;35.23;15.67;;;;;;;;;;5040471;28;20217;-67
2022/03/04 13:34:46;;;;;;;33.40;14.88;;;;;;;;;;5024569;28;20209;-68
2022/03/04 13:37:16;;;;;;;34.50;15.33;;;;;;;;;;5016900;28;20194;-67
2022/03/04 13:39:44;;;;;;;33.27;14.43;;;;;;;;;;5024859;28;20560;-68
2022/03/04 13:42:09;;;;;;;27.57;12.57;;;;;;;;;;5026745;28;20197;-67
2022/03/04 13:44:35;;;;;;;29.85;13.88;;;;;;;;;;5035498;28;20544;-68
2022/03/04 13:47:06;;;;;;;32.67;14.50;;;;;;;;;;5023898;28;20178;-68
2022/03/04 13:49:49;;;;;;;30.33;13.77;;;;;;;;;;5038035;28;20229;-68
2022/03/04 13:52:17;;;;;;;27.63;12.50;;;;;;;;;;5023024;28;20186;-67
2022/03/04 13:54:48;;;;;;;25.58;12.27;;;;;;;;;;5026803;28;20268;-67
2022/03/04 13:57:27;;;;;;;28.30;12.75;;;;;;;;;;5029667;28;20509;-68
2022/03/04 13:59:57;;;;;;;25.43;11.47;;;;;;;;;;5031522;28;20269;-68
2022/03/04 14:02:26;;;;;;;22.53;11.33;;;;;;;;;;5029387;28;20716;-68
2022/03/04 14:04:57;;;;;;;20.17;9.70;;;;;;;;;;5035066;28;20344;-68
2022/03/04 14:07:24;;;;;;;23.47;11.33;;;;;;;;;;5036821;28;20170;-68
2022/03/04 14:09:52;;;;;;;28.40;11.88;;;;;;;;;;5029935;28;20230;-68
2022/03/04 14:12:17;;;;;;;25.10;10.97;;;;;;;;;;5033738;28;20735;-68
2022/03/04 14:14:42;;;;;;;21.63;11.00;;;;;;;;;;5027445;28;20214;-68
2022/03/04 14:17:08;;;;;;;21.15;10.35;;;;;;;;;;5037822;28;20490;-67